createdAt,value
2022-10-18T07:40:42.094Z,15.11
2022-10-18T07:46:44.975Z,15.22
2022-10-18T07:49:08.418Z,15.27
2022-10-18T07:49:55.204Z,15.25
2022-10-18T07:56:09.687Z,15.20
2022-10-18T07:57:08.671Z,15.16
2022-10-18T07:58:08.757Z,15.13
2022-10-18T07:59:11.279Z,15.15
2022-10-18T08:00:08.725Z,15.15
2022-10-18T08:01:08.603Z,15.15
2022-10-18T08:02:09.638Z,15.13
2022-10-18T08:03:08.385Z,15.13
2022-10-18T08:04:12.737Z,15.12
2022-10-18T08:05:09.989Z,15.11
2022-10-18T08:06:08.227Z,15.11
2022-10-18T08:07:08.718Z,15.11
2022-10-18T08:08:08.733Z,15.12
2022-10-18T08:09:08.327Z,15.12
2022-10-18T08:10:08.453Z,15.11
2022-10-18T08:11:08.422Z,15.05
2022-10-18T08:12:08.249Z,15.04
2022-10-18T08:13:07.980Z,15.04
2022-10-18T08:14:08.171Z,15.05
2022-10-18T08:15:08.621Z,15.07
2022-10-18T08:16:08.459Z,15.07
2022-10-18T08:17:08.335Z,15.05
2022-10-18T08:18:08.217Z,15.03
2022-10-18T08:19:09.111Z,15.01
2022-10-18T08:20:19.024Z,15.00
2022-10-18T08:21:09.129Z,14.97
2022-10-18T08:22:07.932Z,14.97
2022-10-18T08:23:08.054Z,14.94
2022-10-18T08:24:08.277Z,14.93
2022-10-18T08:25:07.907Z,14.91
2022-10-18T08:26:07.870Z,14.87
2022-10-18T08:27:07.830Z,14.87
2022-10-18T08:28:08.250Z,14.85
2022-10-18T08:29:22.409Z,14.85
2022-10-18T08:30:08.738Z,14.85
2022-10-18T08:31:09.970Z,14.83
2022-10-18T08:32:09.754Z,14.86
2022-10-18T08:33:09.172Z,14.87
2022-10-18T08:34:08.222Z,14.94
2022-10-18T08:35:08.692Z,14.94
2022-10-18T08:36:08.573Z,14.95
2022-10-18T08:37:07.682Z,14.95
2022-10-18T08:38:09.035Z,14.94
2022-10-18T08:39:10.005Z,14.98
2022-10-18T08:40:08.640Z,15.01
2022-10-18T08:41:11.859Z,15.05
2022-10-18T08:42:09.013Z,15.05
2022-10-18T08:43:07.973Z,15.11
2022-10-18T08:44:07.844Z,15.15
2022-10-18T08:45:12.939Z,15.16
2022-10-18T08:46:10.793Z,15.20
2022-10-18T08:47:08.158Z,15.20
2022-10-18T08:48:07.827Z,15.20
2022-10-18T08:49:08.267Z,15.22
2022-10-18T08:50:08.841Z,15.22
2022-10-18T08:51:08.785Z,15.25
2022-10-18T08:52:08.327Z,15.23
2022-10-18T08:53:07.691Z,15.25
2022-10-18T08:54:08.596Z,15.28
2022-10-18T08:55:08.372Z,15.27
2022-10-18T08:56:08.882Z,15.27
2022-10-18T08:57:09.570Z,15.31
2022-10-18T08:58:08.295Z,15.33
2022-10-18T08:59:08.905Z,15.34
2022-10-18T09:00:07.491Z,15.35
2022-10-18T09:01:07.755Z,15.35
2022-10-18T09:02:09.329Z,15.38
2022-10-18T09:03:08.212Z,15.40
2022-10-18T09:04:08.500Z,15.41
2022-10-18T09:05:08.454Z,15.44
2022-10-18T09:06:08.942Z,15.48
2022-10-18T09:07:07.505Z,15.51
2022-10-18T09:08:07.510Z,15.52
2022-10-18T09:09:07.320Z,15.52
2022-10-18T09:10:07.541Z,15.53
2022-10-18T09:11:07.265Z,15.56
2022-10-18T09:12:07.862Z,15.56
2022-10-18T09:13:07.405Z,15.58
2022-10-18T09:14:07.386Z,15.60
2022-10-18T09:15:07.946Z,15.56
2022-10-18T09:16:07.367Z,15.55
2022-10-18T09:17:08.310Z,15.55
2022-10-18T09:18:07.400Z,15.52
2022-10-18T09:19:07.468Z,15.51
2022-10-18T09:20:07.189Z,15.51
2022-10-18T09:21:07.345Z,15.49
2022-10-18T09:22:09.733Z,15.51
2022-10-18T09:23:07.223Z,15.51
2022-10-18T09:24:08.557Z,15.53
2022-10-18T09:25:09.223Z,15.58
2022-10-18T09:26:10.806Z,15.60
2022-10-18T09:27:07.620Z,15.60
2022-10-18T09:28:08.955Z,15.59
2022-10-18T09:29:07.850Z,15.62
2022-10-18T09:30:08.378Z,15.59
2022-10-18T09:31:07.246Z,15.58
2022-10-18T09:32:08.498Z,15.59
2022-10-18T09:33:07.225Z,15.60
2022-10-18T09:34:07.356Z,15.62
2022-10-18T09:35:08.361Z,15.64
2022-10-18T09:36:08.159Z,15.68
2022-10-18T09:37:07.276Z,15.70
2022-10-18T09:38:08.469Z,15.71
2022-10-18T09:39:07.086Z,15.73
2022-10-18T09:40:14.086Z,15.74
2022-10-18T09:41:10.115Z,15.73
2022-10-18T09:42:11.217Z,15.71
2022-10-18T09:43:07.046Z,15.74
2022-10-18T09:44:07.989Z,15.73
2022-10-18T09:45:07.208Z,15.73
2022-10-18T09:46:07.037Z,15.70
2022-10-18T09:47:08.136Z,15.70
2022-10-18T09:48:07.364Z,15.74
2022-10-18T09:49:07.080Z,15.76
2022-10-18T09:50:06.891Z,15.80
2022-10-18T09:51:07.274Z,15.80
2022-10-18T09:52:06.973Z,15.74
2022-10-18T09:53:06.631Z,15.71
2022-10-18T09:54:06.675Z,15.73
2022-10-18T09:55:08.535Z,15.73
2022-10-18T09:56:10.017Z,15.74
2022-10-18T09:57:07.064Z,15.77
2022-10-18T09:58:10.853Z,15.80
2022-10-18T09:59:06.696Z,15.84
2022-10-18T10:00:07.983Z,15.85
2022-10-18T10:01:07.419Z,15.88
2022-10-18T10:02:06.909Z,15.93
2022-10-18T10:03:07.801Z,15.98
2022-10-18T10:04:06.886Z,16.01
2022-10-18T10:05:07.506Z,15.99
2022-10-18T10:06:06.896Z,16.03
2022-10-18T10:07:07.071Z,16.08
2022-10-18T10:08:07.934Z,16.11
2022-10-18T10:09:06.437Z,16.11
2022-10-18T10:10:06.562Z,16.13
2022-10-18T10:11:06.966Z,16.14
2022-10-18T10:12:07.633Z,16.13
2022-10-18T10:13:07.008Z,16.04
2022-10-18T10:14:08.097Z,16.01
2022-10-18T10:15:06.412Z,15.98
2022-10-18T10:16:07.462Z,15.95
2022-10-18T10:17:06.331Z,15.93
2022-10-18T10:18:06.390Z,15.93
2022-10-18T10:19:06.404Z,15.91
2022-10-18T10:20:06.437Z,15.93
2022-10-18T10:21:06.659Z,15.98
2022-10-18T10:22:06.848Z,16.04
2022-10-18T10:23:07.293Z,16.11
2022-10-18T10:24:06.366Z,16.17
2022-10-18T10:25:06.705Z,16.22
2022-10-18T10:26:06.286Z,16.25
2022-10-18T10:27:06.229Z,16.27
2022-10-18T10:28:06.580Z,16.29
2022-10-18T10:29:13.159Z,16.30
2022-10-18T10:30:07.622Z,16.32
2022-10-18T10:31:06.721Z,16.33
2022-10-18T10:32:06.115Z,16.32
2022-10-18T10:33:06.275Z,16.34
2022-10-18T10:34:06.345Z,16.37
2022-10-18T10:35:07.904Z,16.37
2022-10-18T10:36:06.637Z,16.36
2022-10-18T10:37:06.652Z,16.37
2022-10-18T10:38:06.245Z,16.41
2022-10-18T10:39:06.558Z,16.44
2022-10-18T10:40:17.803Z,16.45
2022-10-18T10:41:07.444Z,16.42
2022-10-18T10:42:09.210Z,16.40
2022-10-18T10:43:18.300Z,16.37
2022-10-18T10:44:12.608Z,16.34
2022-10-18T10:45:07.941Z,16.33
2022-10-18T10:46:06.242Z,16.29
2022-10-18T10:47:09.318Z,16.33
2022-10-18T10:48:06.524Z,16.33
2022-10-18T10:49:39.287Z,16.37
2022-10-18T10:50:06.871Z,16.44
2022-10-18T10:51:06.528Z,16.57
2022-10-18T10:52:25.875Z,16.75
2022-10-18T10:53:07.287Z,16.98
2022-10-18T10:54:06.289Z,17.07
2022-10-18T10:55:30.443Z,17.07
2022-10-18T10:56:06.976Z,17.06
2022-10-18T10:57:06.183Z,17.06
2022-10-18T10:58:06.660Z,17.06
2022-10-18T10:59:05.929Z,17.07
2022-10-18T11:00:06.050Z,17.15
2022-10-18T11:01:09.104Z,17.24
2022-10-18T11:02:07.066Z,17.40
2022-10-18T11:03:23.805Z,17.73
2022-10-18T11:04:08.067Z,18.13
2022-10-18T11:05:05.723Z,18.59
2022-10-18T11:06:06.203Z,18.91
2022-10-18T11:07:05.968Z,18.91
2022-10-18T11:08:05.763Z,18.87
2022-10-18T11:09:05.981Z,18.87
2022-10-18T11:10:05.756Z,18.82
2022-10-18T11:11:06.034Z,18.64
2022-10-18T11:12:05.797Z,18.34
2022-10-18T11:13:05.992Z,18.17
2022-10-18T11:14:25.754Z,18.02
2022-10-18T11:15:06.710Z,17.87
2022-10-18T11:16:06.236Z,17.80
2022-10-18T11:17:08.169Z,17.73
2022-10-18T11:18:05.645Z,17.68
2022-10-18T11:19:05.621Z,17.63
2022-10-18T11:20:05.896Z,17.57
2022-10-18T11:21:06.604Z,17.68
2022-10-18T11:22:05.737Z,17.77
2022-10-18T11:23:05.491Z,17.81
2022-10-18T11:24:05.656Z,17.84
2022-10-18T11:25:10.178Z,17.92
2022-10-18T11:26:05.476Z,18.01
2022-10-18T11:27:06.206Z,18.09
2022-10-18T11:28:06.100Z,18.05
2022-10-18T11:29:05.623Z,18.01
2022-10-18T11:30:05.414Z,18.01
2022-10-18T11:31:05.987Z,18.04
2022-10-18T11:32:05.585Z,18.01
2022-10-18T11:33:05.817Z,17.91
2022-10-18T11:34:09.573Z,17.79
2022-10-18T11:35:06.186Z,17.71
2022-10-18T11:36:05.346Z,17.66
2022-10-18T11:37:31.127Z,17.57
2022-10-18T11:38:06.516Z,17.53
2022-10-18T11:39:05.271Z,17.49
2022-10-18T11:40:06.290Z,17.46
2022-10-18T11:41:05.307Z,17.46
2022-10-18T11:42:05.984Z,17.53
2022-10-18T11:43:05.339Z,17.68
2022-10-18T11:44:06.184Z,17.73
2022-10-18T11:45:06.467Z,17.71
2022-10-18T11:46:05.370Z,17.63
2022-10-18T11:47:05.752Z,17.70
2022-10-18T11:48:05.255Z,17.62
2022-10-18T11:49:05.747Z,17.57
2022-10-18T11:50:05.185Z,17.51
2022-10-18T11:51:05.102Z,17.30
2022-10-18T11:52:09.345Z,17.28
2022-10-18T11:53:06.690Z,17.40
2022-10-18T11:54:05.710Z,17.55
2022-10-18T11:55:05.385Z,17.60
2022-10-18T11:56:05.077Z,17.66
2022-10-18T11:57:05.021Z,17.66
2022-10-18T11:58:05.563Z,17.71
2022-10-18T11:59:05.104Z,17.84
2022-10-18T12:00:05.263Z,17.92
2022-10-18T12:01:05.216Z,17.98
2022-10-18T12:02:05.055Z,18.13
2022-10-18T12:03:05.717Z,18.34
2022-10-18T12:04:05.698Z,18.57
2022-10-18T12:05:22.557Z,18.82
2022-10-18T12:06:06.109Z,19.02
2022-10-18T12:07:05.360Z,19.17
2022-10-18T12:08:05.006Z,19.45
2022-10-18T12:09:05.135Z,19.62
2022-10-18T12:10:05.816Z,19.78
2022-10-18T12:11:06.086Z,19.98
2022-10-18T12:12:04.802Z,20.01
2022-10-18T12:13:04.787Z,19.89
2022-10-18T12:14:04.762Z,19.79
2022-10-18T12:15:04.899Z,19.71
2022-10-18T12:16:04.732Z,19.46
2022-10-18T12:17:35.853Z,19.42
2022-10-18T12:18:05.634Z,19.38
2022-10-18T12:19:04.683Z,19.23
2022-10-18T12:20:04.769Z,19.15
2022-10-18T12:21:04.704Z,19.10
2022-10-18T12:22:04.724Z,19.16
2022-10-18T12:23:04.601Z,19.30
2022-10-18T12:24:04.589Z,19.24
2022-10-18T12:25:04.538Z,19.02
2022-10-18T12:26:04.530Z,18.83
2022-10-18T12:27:04.933Z,18.86
2022-10-18T12:28:04.732Z,18.96
2022-10-18T12:29:04.651Z,19.10
2022-10-18T12:30:04.589Z,19.25
2022-10-18T12:31:04.532Z,18.87
2022-10-18T12:32:05.305Z,18.75
2022-10-18T12:33:26.656Z,18.74
2022-10-18T12:34:06.720Z,18.50
2022-10-18T12:35:04.587Z,18.31
2022-10-18T12:36:04.583Z,18.28
2022-10-18T12:38:04.562Z,18.28
2022-10-18T12:39:04.411Z,18.20
2022-10-18T12:40:10.470Z,18.17
2022-10-18T12:41:05.328Z,18.25
2022-10-18T12:42:04.340Z,18.23
2022-10-18T12:43:04.362Z,18.14
2022-10-18T12:44:04.277Z,18.42
2022-10-18T12:45:05.325Z,18.54
2022-10-18T12:46:04.435Z,18.64
2022-10-18T12:47:04.272Z,18.60
2022-10-18T12:48:04.283Z,18.51
2022-10-18T12:49:04.201Z,18.47
2022-10-18T12:50:04.222Z,18.31
2022-10-18T12:51:04.338Z,18.29
2022-10-18T12:52:04.163Z,18.28
2022-10-18T12:53:04.211Z,18.29
2022-10-18T12:54:04.182Z,18.35
2022-10-18T12:55:04.127Z,18.17
2022-10-18T12:56:04.170Z,18.07
2022-10-18T12:57:04.268Z,18.02
2022-10-18T12:58:04.243Z,18.05
2022-10-18T12:59:04.110Z,18.02
2022-10-18T13:00:04.259Z,17.98
2022-10-18T13:01:04.162Z,17.96
2022-10-18T13:02:04.109Z,17.94
2022-10-18T13:03:05.077Z,17.92
2022-10-18T13:04:04.063Z,17.87
2022-10-18T13:05:06.352Z,17.89
2022-10-18T13:06:06.818Z,17.84
2022-10-18T13:07:04.046Z,17.83
2022-10-18T13:08:04.005Z,17.83
2022-10-18T13:09:03.979Z,17.81
2022-10-18T13:10:04.147Z,17.80
2022-10-18T13:11:04.909Z,17.79
2022-10-18T13:12:04.025Z,17.81
2022-10-18T13:13:14.211Z,17.79
2022-10-18T13:15:24.094Z,17.77
2022-10-18T13:16:04.950Z,17.79
2022-10-18T13:17:03.927Z,17.80
2022-10-18T13:18:04.179Z,17.83
2022-10-18T13:19:07.082Z,17.86
2022-10-18T13:20:24.961Z,17.91
2022-10-18T13:21:05.648Z,17.94
2022-10-18T13:22:04.253Z,17.94
2022-10-18T13:23:04.355Z,17.91
2022-10-18T13:24:07.555Z,17.91
2022-10-18T13:25:10.685Z,17.86
2022-10-18T13:26:04.977Z,17.86
2022-10-18T13:27:42.414Z,17.84
2022-10-18T13:28:08.713Z,17.83
2022-10-18T13:29:06.224Z,17.86
2022-10-18T13:30:04.343Z,17.83
2022-10-18T13:31:04.828Z,17.86
2022-10-18T13:32:05.850Z,17.84
2022-10-18T13:33:05.359Z,17.83
2022-10-18T13:34:06.052Z,17.84
2022-10-18T13:35:05.032Z,17.81
2022-10-18T13:36:08.717Z,17.80
2022-10-18T13:37:06.214Z,17.80
2022-10-18T13:38:05.597Z,17.79
2022-10-18T13:39:07.123Z,17.80
2022-10-18T13:40:04.198Z,17.79
2022-10-18T13:41:03.993Z,17.76
2022-10-18T13:42:12.705Z,17.73
2022-10-18T13:43:04.341Z,17.73
2022-10-18T13:44:04.722Z,17.73
2022-10-18T13:45:05.438Z,17.73
2022-10-18T13:46:04.817Z,17.74
2022-10-18T13:47:04.465Z,17.74
2022-10-18T13:48:06.209Z,17.77
2022-10-18T13:49:04.105Z,17.76
2022-10-18T13:50:05.133Z,17.76
2022-10-18T13:51:04.172Z,17.74
2022-10-18T13:52:06.047Z,17.74
2022-10-18T13:53:05.068Z,17.73
2022-10-18T13:54:03.876Z,17.76
2022-10-18T13:55:07.102Z,17.73
2022-10-18T13:56:10.151Z,17.71
2022-10-18T13:57:08.312Z,17.71
2022-10-18T13:58:03.935Z,17.68
2022-10-18T13:59:14.331Z,17.66
2022-10-18T14:00:04.969Z,17.65
2022-10-18T14:01:03.844Z,17.60
2022-10-18T14:02:04.173Z,17.58
2022-10-18T14:03:04.993Z,17.54
2022-10-18T14:04:04.225Z,17.54
2022-10-18T14:05:23.228Z,17.54
2022-10-18T14:06:05.615Z,17.55
2022-10-18T14:07:04.400Z,17.53
2022-10-18T14:08:08.151Z,17.49
2022-10-18T14:09:13.818Z,17.47
2022-10-18T14:10:04.862Z,17.46
2022-10-18T14:11:03.938Z,17.43
2022-10-18T14:12:06.262Z,17.45
2022-10-18T14:13:03.328Z,17.45
2022-10-18T14:14:04.627Z,17.46
2022-10-18T14:15:04.798Z,17.46
2022-10-18T14:16:03.338Z,17.43
2022-10-18T14:17:03.458Z,17.45
2022-10-18T14:18:03.505Z,17.45
2022-10-18T14:19:03.106Z,17.45
2022-10-18T14:20:04.791Z,17.45
2022-10-18T14:21:19.872Z,17.46
2022-10-18T14:22:05.452Z,17.43
2022-10-18T14:23:04.974Z,17.42
2022-10-18T14:24:05.296Z,17.40
2022-10-18T14:25:07.375Z,17.40
2022-10-18T14:26:03.633Z,17.38
2022-10-18T14:27:03.740Z,17.39
2022-10-18T14:28:03.031Z,17.39
2022-10-18T14:29:03.320Z,17.40
2022-10-18T14:30:03.396Z,17.38
2022-10-18T14:31:04.347Z,17.39
2022-10-18T14:32:03.227Z,17.38
2022-10-18T14:33:03.709Z,17.38
2022-10-18T14:34:03.176Z,17.36
2022-10-18T14:35:32.436Z,17.33
2022-10-18T14:36:04.484Z,17.33
2022-10-18T14:37:04.403Z,17.32
2022-10-18T14:38:03.308Z,17.33
2022-10-18T14:39:03.142Z,17.30
2022-10-18T14:40:04.082Z,17.27
2022-10-18T14:41:05.301Z,17.24
2022-10-18T14:42:03.579Z,17.24
2022-10-18T14:43:03.577Z,17.25
2022-10-18T14:44:03.022Z,17.25
2022-10-18T14:45:03.903Z,17.24
2022-10-18T14:46:02.933Z,17.22
2022-10-18T14:47:07.028Z,17.24
2022-10-18T14:48:02.829Z,17.24
2022-10-18T14:49:04.467Z,17.22
2022-10-18T14:50:03.570Z,17.22
2022-10-18T14:51:02.876Z,17.21
2022-10-18T14:52:02.697Z,17.20
2022-10-18T14:53:03.038Z,17.21
2022-10-18T14:54:03.330Z,17.21
2022-10-18T14:55:03.579Z,17.21
2022-10-18T14:56:03.160Z,17.20
2022-10-18T14:57:02.888Z,17.18
2022-10-18T14:58:03.194Z,17.17
2022-10-18T14:59:04.248Z,17.15
2022-10-18T15:00:02.930Z,17.14
2022-10-18T15:01:02.873Z,17.12
2022-10-18T15:02:03.076Z,17.12
2022-10-18T15:03:03.173Z,17.12
2022-10-18T15:04:03.141Z,17.10
2022-10-18T15:05:03.803Z,17.10
2022-10-18T15:06:05.034Z,17.07
2022-10-18T15:07:03.057Z,17.09
2022-10-18T15:08:06.524Z,17.09
2022-10-18T15:09:02.610Z,17.09
2022-10-18T15:10:02.883Z,17.07
2022-10-18T15:11:02.763Z,17.09
2022-10-18T15:12:02.950Z,17.07
2022-10-18T15:13:11.436Z,17.05
2022-10-18T15:14:04.620Z,17.05
2022-10-18T15:15:02.649Z,17.02
2022-10-18T15:16:03.256Z,17.02
2022-10-18T15:17:02.524Z,16.99
2022-10-18T15:18:11.548Z,16.98
2022-10-18T15:19:02.848Z,16.98
2022-10-18T15:20:05.914Z,16.95
2022-10-18T15:21:03.101Z,16.95
2022-10-18T15:22:30.314Z,16.92
2022-10-18T15:23:04.618Z,16.95
2022-10-18T15:24:02.951Z,16.90
2022-10-18T15:25:02.265Z,16.90
2022-10-18T15:26:03.681Z,16.90
2022-10-18T15:27:04.199Z,16.87
2022-10-18T15:28:02.570Z,16.88
2022-10-18T15:29:06.905Z,16.85
2022-10-18T15:30:05.657Z,16.87
2022-10-18T15:31:03.119Z,16.84
2022-10-18T15:32:07.416Z,16.84
2022-10-18T15:33:02.508Z,16.84
2022-10-18T15:34:03.886Z,16.84
2022-10-18T15:35:04.200Z,16.82
2022-10-18T15:36:02.643Z,16.81
2022-10-18T15:37:03.488Z,16.80
2022-10-18T15:38:03.472Z,16.78
2022-10-18T15:39:04.240Z,16.78
2022-10-18T15:40:02.663Z,16.78
2022-10-18T15:41:04.411Z,16.80
2022-10-18T15:42:05.434Z,16.78
2022-10-18T15:43:02.369Z,16.77
2022-10-18T15:44:02.362Z,16.77
2022-10-18T15:45:02.793Z,16.73
2022-10-18T15:46:05.295Z,16.72
2022-10-18T15:47:03.035Z,16.72
2022-10-18T15:48:06.181Z,16.73
2022-10-18T15:49:02.069Z,16.70
2022-10-18T15:50:03.292Z,16.67
2022-10-18T15:51:03.259Z,16.67
2022-10-18T15:52:02.232Z,16.66
2022-10-18T15:53:02.181Z,16.65
2022-10-18T15:54:02.603Z,16.62
2022-10-18T15:55:02.585Z,16.60
2022-10-18T15:56:02.171Z,16.59
2022-10-18T15:57:02.716Z,16.55
2022-10-18T15:58:03.998Z,16.51
2022-10-18T15:59:02.176Z,16.48
2022-10-18T16:00:03.753Z,16.47
2022-10-18T16:01:02.103Z,16.44
2022-10-18T16:02:03.664Z,16.42
2022-10-18T16:03:02.772Z,16.42
2022-10-18T16:04:02.389Z,16.41
2022-10-18T16:05:02.614Z,16.37
2022-10-18T16:06:02.660Z,16.36
2022-10-18T16:07:02.930Z,16.33
2022-10-18T16:08:03.524Z,16.32
2022-10-18T16:09:12.682Z,16.30
2022-10-18T16:10:03.611Z,16.27
2022-10-18T16:11:02.018Z,16.26
2022-10-18T16:12:01.886Z,16.23
2022-10-18T16:13:04.301Z,16.22
2022-10-18T16:14:10.735Z,16.18
2022-10-18T16:15:04.692Z,16.18
2022-10-18T16:16:06.132Z,16.16
2022-10-18T16:17:12.177Z,16.14
2022-10-18T16:18:06.635Z,16.14
2022-10-18T16:19:04.828Z,16.13
2022-10-18T16:20:03.068Z,16.11
2022-10-18T16:21:06.077Z,16.10
2022-10-18T16:22:06.928Z,16.08
2022-10-18T16:23:05.860Z,16.06
2022-10-18T16:24:05.719Z,16.03
2022-10-18T16:25:06.337Z,16.03
2022-10-18T16:26:03.051Z,16.01
2022-10-18T16:27:01.988Z,15.98
2022-10-18T16:28:02.937Z,15.95
2022-10-18T16:29:03.653Z,15.92
2022-10-18T16:30:08.535Z,15.91
2022-10-18T16:31:12.850Z,15.88
2022-10-18T16:32:05.809Z,15.84
2022-10-18T16:33:01.991Z,15.84
2022-10-18T16:34:01.865Z,15.78
2022-10-18T16:35:01.423Z,15.74
2022-10-18T16:36:01.430Z,15.70
2022-10-18T16:37:02.073Z,15.68
2022-10-18T16:38:03.291Z,15.68
2022-10-18T16:39:02.321Z,15.66
2022-10-18T16:40:01.463Z,15.66
2022-10-18T16:41:02.738Z,15.62
2022-10-18T16:42:01.772Z,15.59
2022-10-18T16:43:04.076Z,15.59
2022-10-18T16:44:03.084Z,15.56
2022-10-18T16:45:01.645Z,15.55
2022-10-18T16:46:07.787Z,15.52
2022-10-18T16:47:04.407Z,15.51
2022-10-18T16:48:02.093Z,15.51
2022-10-18T16:49:01.739Z,15.48
2022-10-18T16:50:06.403Z,15.48
2022-10-18T16:51:04.960Z,15.43
2022-10-18T16:52:02.006Z,15.41
2022-10-18T16:53:02.264Z,15.38
2022-10-18T16:54:02.178Z,15.38
2022-10-18T16:55:02.078Z,15.34
2022-10-18T16:56:02.476Z,15.28
2022-10-18T16:57:01.230Z,15.23
2022-10-18T16:58:02.636Z,15.19
2022-10-18T16:59:02.493Z,15.16
2022-10-18T17:00:01.328Z,15.16
2022-10-18T17:01:03.014Z,15.13
2022-10-18T17:02:07.156Z,15.11
2022-10-18T17:03:02.222Z,15.07
2022-10-18T17:04:02.908Z,15.01
2022-10-18T17:05:22.419Z,14.97
2022-10-18T17:06:02.987Z,14.93
2022-10-18T17:07:04.203Z,14.85
2022-10-18T17:08:06.619Z,14.82
2022-10-18T17:09:07.003Z,14.79
2022-10-18T17:10:03.362Z,14.75
2022-10-18T17:11:03.129Z,14.72
2022-10-18T17:12:05.896Z,14.71
2022-10-18T17:13:03.376Z,14.69
2022-10-18T17:14:07.288Z,14.66
2022-10-18T17:15:03.465Z,14.64
2022-10-18T17:16:05.789Z,14.61
2022-10-18T17:17:07.434Z,14.59
2022-10-18T17:19:27.246Z,14.56
2022-10-18T17:20:15.070Z,14.52
2022-10-18T17:21:16.600Z,14.48
2022-10-18T17:22:21.232Z,14.44
2022-10-18T17:23:16.093Z,14.42
2022-10-18T17:24:14.821Z,14.39
2022-10-18T17:25:18.419Z,14.34
2022-10-18T17:26:29.464Z,14.30
2022-10-18T17:27:16.138Z,14.27
2022-10-18T17:28:16.869Z,14.21
2022-10-18T17:29:13.837Z,14.20
2022-10-18T17:30:15.137Z,14.19
2022-10-18T17:31:16.416Z,14.13
2022-10-18T17:32:14.323Z,14.11
2022-10-18T17:33:15.230Z,14.04
2022-10-18T17:34:20.847Z,14.02
2022-10-18T17:35:17.322Z,13.99
2022-10-18T17:36:16.687Z,13.91
2022-10-18T17:37:18.559Z,13.88
2022-10-18T17:38:16.596Z,13.86
2022-10-18T17:39:19.301Z,13.84
2022-10-18T17:40:22.363Z,13.83
2022-10-18T17:41:20.473Z,13.81
2022-10-18T17:42:15.342Z,13.81
2022-10-18T17:43:17.273Z,13.79
2022-10-18T17:44:16.193Z,13.75
2022-10-18T17:45:20.586Z,13.73
2022-10-18T17:46:22.047Z,13.73
2022-10-18T17:47:24.011Z,13.73
2022-10-18T17:48:25.968Z,13.71
2022-10-18T17:49:26.153Z,13.69
2022-10-18T17:50:20.720Z,13.68
2022-10-18T17:51:21.034Z,13.63
2022-10-18T17:52:20.140Z,13.61
2022-10-18T17:53:17.421Z,13.59
2022-10-18T17:54:15.631Z,13.57
2022-10-18T17:55:17.062Z,13.57
2022-10-18T17:56:20.132Z,13.53
2022-10-18T17:57:27.645Z,13.50
2022-10-18T17:58:24.095Z,13.47
2022-10-18T17:59:23.282Z,13.46
2022-10-18T18:00:14.793Z,13.44
2022-10-18T18:01:26.471Z,13.39
2022-10-18T18:02:31.925Z,13.38
2022-10-18T18:03:22.317Z,13.32
2022-10-18T18:04:27.134Z,13.31
2022-10-18T18:05:31.421Z,13.29
2022-10-18T18:06:37.605Z,13.28
2022-10-18T18:10:00.391Z,13.22
2022-10-18T18:14:29.978Z,13.21
2022-10-18T18:15:16.635Z,13.19
2022-10-18T18:16:12.953Z,13.17
2022-10-18T18:17:28.768Z,13.16
2022-10-18T18:18:14.374Z,13.14
2022-10-18T18:19:14.990Z,13.13
2022-10-18T18:20:15.340Z,13.10
2022-10-18T18:21:34.162Z,13.09
2022-10-18T18:22:19.244Z,13.06
2022-10-18T18:23:18.384Z,13.03
2022-10-18T18:24:23.381Z,13.01
2022-10-18T18:25:17.783Z,13.01
2022-10-18T18:26:44.491Z,12.99
2022-10-18T18:27:32.897Z,12.99
2022-10-18T18:28:15.815Z,12.98
2022-10-18T18:29:45.841Z,12.98
2022-10-18T18:30:16.575Z,12.96
2022-10-18T18:31:26.238Z,12.96
2022-10-18T18:32:16.602Z,12.92
2022-10-18T18:33:10.585Z,12.91
2022-10-18T18:34:06.746Z,12.91
2022-10-18T18:35:14.002Z,12.89
2022-10-18T18:36:14.112Z,12.88
2022-10-18T18:37:13.418Z,12.89
2022-10-18T18:38:14.712Z,12.91
2022-10-18T18:39:16.792Z,12.89
2022-10-18T18:40:14.814Z,12.91
2022-10-18T18:41:32.412Z,12.88
2022-10-18T18:42:56.784Z,12.88
2022-10-18T18:45:12.244Z,12.87
2022-10-18T18:50:26.313Z,12.88
2022-10-18T18:51:33.814Z,12.87
2022-10-18T18:52:28.579Z,12.84
2022-10-18T18:53:28.695Z,12.87
2022-10-18T18:54:32.732Z,12.87
2022-10-18T18:55:32.121Z,12.87
2022-10-18T18:58:17.085Z,12.85
2022-10-18T18:59:49.332Z,12.84
2022-10-18T19:00:24.635Z,12.84
2022-10-18T19:01:18.695Z,12.80
2022-10-18T19:02:28.758Z,12.79
2022-10-18T19:03:19.853Z,12.77
2022-10-18T19:04:27.437Z,12.74
2022-10-18T19:06:57.767Z,12.67
2022-10-18T19:08:53.991Z,12.61
2022-10-18T19:09:54.310Z,12.56
2022-10-18T19:10:53.690Z,12.55
2022-10-18T19:11:53.130Z,12.55
2022-10-18T19:12:53.866Z,12.54
2022-10-18T19:13:52.574Z,12.49
2022-10-18T19:14:53.600Z,12.48
2022-10-18T19:15:55.078Z,12.44
2022-10-18T19:16:53.049Z,12.44
2022-10-18T19:17:53.169Z,12.43
2022-10-18T19:18:52.980Z,12.41
2022-10-18T19:19:54.861Z,12.41
2022-10-18T19:20:53.340Z,12.43
2022-10-18T19:33:10.944Z,12.36
2022-10-18T19:34:09.194Z,12.33
2022-10-18T19:35:09.729Z,12.30
2022-10-18T19:36:09.116Z,12.30
2022-10-18T19:37:08.955Z,12.29
2022-10-18T19:38:09.050Z,12.25
2022-10-18T19:39:09.075Z,12.22
2022-10-18T19:40:09.108Z,12.21
2022-10-18T19:41:09.073Z,12.19
2022-10-18T19:42:09.980Z,12.19
2022-10-18T19:43:09.059Z,12.16
2022-10-18T19:44:08.886Z,12.18
2022-10-18T19:45:08.788Z,12.16
2022-10-18T19:46:09.015Z,12.15
2022-10-18T19:47:08.814Z,12.15
2022-10-18T19:48:11.262Z,12.13
2022-10-18T19:49:09.549Z,12.11
2022-10-18T19:50:08.685Z,12.07
2022-10-18T19:54:19.203Z,12.04
2022-10-18T19:54:56.616Z,12.03
2022-10-18T19:59:49.237Z,11.96
2022-10-18T20:20:10.974Z,11.62
2022-10-18T20:23:28.617Z,11.57
2022-10-18T20:24:28.008Z,11.53
2022-10-18T20:25:27.876Z,11.53
2022-10-18T20:26:28.641Z,11.53
2022-10-18T20:27:27.853Z,11.51
2022-10-18T20:28:28.061Z,11.48
2022-10-18T20:29:27.918Z,11.46
2022-10-18T20:30:28.044Z,11.46
2022-10-18T20:31:27.821Z,11.45
2022-10-18T20:32:27.856Z,11.44
2022-10-18T20:33:27.796Z,11.44
2022-10-18T20:34:27.958Z,11.44
2022-10-18T20:35:27.798Z,11.42
2022-10-18T20:36:27.793Z,11.42
2022-10-18T20:37:27.785Z,11.41
2022-10-18T20:38:27.777Z,11.39
2022-10-18T20:39:27.740Z,11.36
2022-10-18T20:40:27.649Z,11.36
2022-10-18T20:41:27.775Z,11.35
2022-10-18T20:45:44.787Z,11.33
2022-10-18T20:46:45.501Z,11.28
2022-10-18T20:47:44.532Z,11.28
2022-10-18T20:48:44.529Z,11.27
2022-10-18T20:49:44.202Z,11.27
2022-10-18T20:50:44.703Z,11.26
2022-10-18T20:53:23.433Z,11.23
2022-10-18T20:54:20.583Z,11.20
2022-10-18T20:55:18.986Z,11.17
2022-10-18T20:56:19.641Z,11.17
2022-10-18T20:57:21.253Z,11.17
2022-10-18T20:58:19.658Z,11.13
2022-10-18T20:59:19.743Z,11.11
2022-10-18T21:00:19.489Z,11.09
2022-10-18T21:01:19.797Z,11.08
2022-10-18T21:02:19.314Z,11.08
2022-10-18T21:03:20.271Z,11.06
2022-10-18T21:04:36.701Z,11.05
2022-10-18T21:05:19.358Z,11.02
2022-10-18T21:06:19.613Z,11.03
2022-10-18T21:07:18.231Z,11.01
2022-10-18T21:08:18.796Z,10.99
2022-10-18T21:09:18.755Z,10.98
2022-10-18T21:10:18.450Z,10.98
2022-10-18T21:11:18.463Z,10.98
2022-10-18T21:12:18.608Z,10.98
2022-10-18T21:13:20.083Z,10.95
2022-10-18T21:14:18.565Z,10.94
2022-10-18T21:15:18.644Z,10.91
2022-10-18T21:16:18.259Z,10.88
2022-10-18T21:17:19.572Z,10.86
2022-10-18T21:18:18.276Z,10.83
2022-10-18T21:19:18.576Z,10.83
2022-10-18T21:20:18.777Z,10.80
2022-10-18T21:21:18.792Z,10.86
2022-10-18T21:22:18.983Z,10.81
2022-10-18T21:23:19.577Z,10.80
2022-10-18T21:24:18.272Z,10.80
2022-10-18T21:25:19.725Z,10.78
2022-10-18T21:26:18.299Z,10.78
2022-10-18T21:27:18.626Z,10.78
2022-10-18T21:28:18.091Z,10.80
2022-10-18T21:29:21.949Z,10.80
2022-10-18T21:30:18.446Z,10.80
2022-10-18T21:31:18.025Z,10.78
2022-10-18T21:32:18.218Z,10.76
2022-10-18T21:33:19.391Z,10.75
2022-10-18T21:34:18.704Z,10.75
2022-10-18T21:35:19.545Z,10.76
2022-10-18T21:36:19.079Z,10.73
2022-10-18T21:37:18.477Z,10.72
2022-10-18T21:38:18.805Z,10.72
2022-10-18T21:39:19.321Z,10.69
2022-10-18T21:40:18.346Z,10.70
2022-10-18T21:41:18.242Z,10.69
2022-10-18T21:42:18.543Z,10.68
2022-10-18T21:43:18.898Z,10.65
2022-10-18T21:44:18.873Z,10.63
2022-10-18T21:45:18.558Z,10.65
2022-10-18T21:46:18.409Z,10.65
2022-10-18T21:47:18.186Z,10.65
2022-10-18T21:48:18.404Z,10.63